Time;durP1;ratioP1;P1;durP2;ratioP2;P2;SDS_P1;SDS_P2;PMS_P1;PMS_P2;Temp;Humidity;BMP_temperature;BMP_pressure;BME280_temperature;BME280_humidity;BME280_pressure;Samples;Min_cycle;Max_cycle;Signal;HPM_P1;HPM_P2
2023/12/05 00:01:32;;;;;;;47.70;42.72;;;;;;;1.73;100.00;99754.97;5070121;28;20107;-78
2023/12/05 00:03:58;;;;;;;47.88;42.65;;;;;;;1.72;100.00;99755.88;5060366;28;20025;-78
2023/12/05 00:06:24;;;;;;;47.78;42.58;;;;;;;1.72;100.00;99755.88;5044309;28;20043;-78
2023/12/05 00:08:49;;;;;;;48.20;42.38;;;;;;;1.74;100.00;99748.84;5049212;28;20476;-78
2023/12/05 00:11:14;;;;;;;49.25;42.67;;;;;;;1.73;100.00;99747.19;5050740;28;20082;-78
2023/12/05 00:13:40;;;;;;;49.33;43.92;;;;;;;1.74;100.00;99748.84;5051499;28;21071;-79
2023/12/05 00:16:07;;;;;;;48.92;43.58;;;;;;;1.76;100.00;99744.41;5051566;28;20025;-79
2023/12/05 00:18:32;;;;;;;49.28;43.22;;;;;;;1.76;100.00;99746.19;5049205;28;20039;-79
2023/12/05 00:21:01;;;;;;;49.63;43.70;;;;;;;1.78;100.00;99749.53;5046905;28;20025;-79
2023/12/05 00:23:26;;;;;;;49.00;43.38;;;;;;;1.80;100.00;99742.50;5049033;28;20037;-79
2023/12/05 00:25:52;;;;;;;49.17;42.83;;;;;;;1.81;100.00;99738.97;5033800;28;20079;-79
2023/12/05 00:28:17;;;;;;;48.75;43.13;;;;;;;1.80;100.00;99740.72;5030363;28;20028;-79
2023/12/05 00:30:42;;;;;;;48.70;42.80;;;;;;;1.82;100.00;99746.66;5034286;28;20035;-79
2023/12/05 00:33:07;;;;;;;52.67;45.00;;;;;;;1.82;100.00;99736.28;5049018;28;20060;-79
2023/12/05 00:35:33;;;;;;;50.03;44.63;;;;;;;1.83;100.00;99735.38;5051464;28;20061;-79
2023/12/05 00:37:58;;;;;;;50.20;44.28;;;;;;;1.83;100.00;99742.31;5048140;28;20021;-79
2023/12/05 00:40:29;;;;;;;51.40;44.03;;;;;;;1.83;100.00;99737.97;5059412;28;20061;-79
2023/12/05 00:42:55;;;;;;;51.05;44.70;;;;;;;1.84;100.00;99739.63;5047343;28;20091;-79
2023/12/05 00:45:21;;;;;;;51.03;44.42;;;;;;;1.86;100.00;99731.78;5032479;28;20044;-79
2023/12/05 00:47:46;;;;;;;51.22;44.67;;;;;;;1.86;100.00;99731.78;5048049;28;20522;-79
2023/12/05 00:50:12;;;;;;;50.38;44.42;;;;;;;1.85;100.00;99733.53;5049014;28;20505;-79
2023/12/05 00:52:37;;;;;;;50.80;43.97;;;;;;;1.87;100.00;99730.84;5048638;28;20020;-79
2023/12/05 00:55:03;;;;;;;50.53;44.95;;;;;;;1.88;100.00;99729.94;5048654;28;20473;-79
2023/12/05 00:57:28;;;;;;;50.75;44.28;;;;;;;1.89;100.00;99736.78;5057356;28;20025;-79
2023/12/05 00:59:54;;;;;;;53.13;44.97;;;;;;;1.89;100.00;99737.63;5030469;28;20013;-79
2023/12/05 01:02:19;;;;;;;50.67;44.88;;;;;;;1.92;100.00;99740.97;5039859;28;20571;-79
2023/12/05 01:04:45;;;;;;;50.72;44.65;;;;;;;1.91;100.00;99739.28;5030905;28;20393;-79
2023/12/05 01:07:12;;;;;;;51.65;43.53;;;;;;;1.94;100.00;99736.53;5032611;28;20036;-79
2023/12/05 01:09:39;;;;;;;51.65;46.10;;;;;;;1.94;100.00;99733.94;5047971;28;20149;-79
2023/12/05 01:12:05;;;;;;;50.65;44.15;;;;;;;1.94;100.00;99729.56;5047502;28;20021;-79
2023/12/05 01:14:31;;;;;;;51.05;44.22;;;;;;;1.95;100.00;99733.00;5047177;28;20025;-79
2023/12/05 01:16:56;;;;;;;50.00;44.50;;;;;;;1.96;100.00;99727.72;5048594;28;20036;-79
2023/12/05 01:19:21;;;;;;;49.75;43.58;;;;;;;1.98;100.00;99727.66;5041160;28;20528;-79
2023/12/05 01:21:47;;;;;;;50.22;43.97;;;;;;;1.99;100.00;99718.94;5043017;28;20743;-79
2023/12/05 01:24:12;;;;;;;48.40;42.72;;;;;;;1.99;100.00;99719.78;5049459;28;20081;-79
2023/12/05 01:26:37;;;;;;;50.10;43.15;;;;;;;1.99;100.00;99724.97;5049900;28;20021;-79
2023/12/05 01:29:04;;;;;;;51.28;44.58;;;;;;;2.02;100.00;99716.19;5049405;28;20469;-79
2023/12/05 01:31:30;;;;;;;49.05;43.72;;;;;;;2.01;100.00;99724.91;5049341;28;20111;-79
2023/12/05 01:33:55;;;;;;;48.35;43.05;;;;;;;2.01;100.00;99720.56;5051413;28;20540;-79
2023/12/05 01:36:22;;;;;;;50.25;43.42;;;;;;;2.02;100.00;99726.56;5043693;28;20503;-79
2023/12/05 01:38:48;;;;;;;49.65;44.17;;;;;;;2.03;100.00;99723.06;5039561;28;20057;-79
2023/12/05 01:41:13;;;;;;;50.05;43.83;;;;;;;2.04;100.00;99714.34;5067806;28;20107;-79
2023/12/05 01:43:38;;;;;;;49.00;43.30;;;;;;;2.06;100.00;99712.50;5057359;28;20017;-79
2023/12/05 01:46:04;;;;;;;50.88;43.55;;;;;;;2.06;100.00;99721.13;5048834;28;20385;-79
2023/12/05 01:48:32;;;;;;;52.42;42.95;;;;;;;2.08;100.00;99715.84;5050220;28;20416;-79
2023/12/05 01:51:01;;;;;;;49.65;43.10;;;;;;;2.08;100.00;99727.06;5047456;28;20051;-79
2023/12/05 01:53:27;;;;;;;51.03;44.22;;;;;;;2.08;100.00;99724.47;5048221;28;20454;-79
2023/12/05 01:55:53;;;;;;;48.13;42.65;;;;;;;2.09;100.00;99722.69;5043232;28;20033;-79
2023/12/05 01:58:19;;;;;;;50.40;43.25;;;;;;;2.11;100.00;99720.84;5036552;28;20405;-79
2023/12/05 02:00:45;;;;;;;49.22;43.33;;;;;;;2.12;100.00;99725.13;5059586;28;20033;-79
2023/12/05 02:03:10;;;;;;;49.83;43.00;;;;;;;2.12;100.00;99732.91;5048887;28;20025;-79
2023/12/05 02:05:37;;;;;;;51.40;43.95;;;;;;;2.12;100.00;99738.09;5048504;28;20029;-79
2023/12/05 02:08:03;;;;;;;52.40;43.80;;;;;;;2.12;100.00;99743.28;5045965;28;20037;-79
2023/12/05 02:10:28;;;;;;;50.30;44.42;;;;;;;2.12;100.00;99743.28;5046059;28;20040;-79
2023/12/05 02:12:53;;;;;;;52.42;44.63;;;;;;;2.13;100.00;99737.16;5040744;28;20116;-79
2023/12/05 02:15:19;;;;;;;50.83;44.28;;;;;;;2.13;100.00;99739.75;5037085;28;20245;-79
2023/12/05 02:17:56;;;;;;;51.75;43.65;;;;;;;2.14;100.00;99736.25;5028051;28;20033;-79
2023/12/05 02:20:38;;;;;;;51.97;44.63;;;;;;;2.15;100.00;99743.94;5042306;28;20021;-79
2023/12/05 02:23:16;;;;;;;51.17;45.53;;;;;;;2.16;100.00;99729.22;5047640;28;20041;-79
2023/12/05 02:26:08;;;;;;;52.78;45.85;;;;;;;2.17;100.00;99729.13;5046660;28;20017;-79
2023/12/05 02:28:34;;;;;;;55.85;46.35;;;;;;;2.16;100.00;99731.81;5047372;28;20032;-79
2023/12/05 02:31:00;;;;;;;53.42;46.55;;;;;;;2.17;100.00;99731.72;5042852;28;20024;-79
2023/12/05 02:33:25;;;;;;;56.25;48.58;;;;;;;2.18;100.00;99733.38;5032210;28;20063;-79
2023/12/05 02:36:00;;;;;;;53.78;46.17;;;;;;;2.20;100.00;99735.88;5049112;28;20074;-79
2023/12/05 02:39:12;;;;;;;53.58;45.90;;;;;;;2.20;100.00;99734.13;5043992;28;20524;-79
2023/12/05 02:41:41;;;;;;;55.17;47.30;;;;;;;2.18;100.00;99727.38;5027301;28;20674;-79
2023/12/05 02:44:11;;;;;;;56.30;48.85;;;;;;;2.19;100.00;99729.88;5040064;28;20025;-79
2023/12/05 02:46:37;;;;;;;56.50;48.70;;;;;;;2.20;100.00;99728.09;5046763;28;20389;-79
2023/12/05 02:49:04;;;;;;;57.53;49.40;;;;;;;2.22;100.00;99726.25;5041300;28;20017;-79
2023/12/05 02:51:29;;;;;;;55.70;48.90;;;;;;;2.23;100.00;99724.50;5032575;28;20044;-79
2023/12/05 02:53:55;;;;;;;55.60;48.35;;;;;;;2.22;100.00;99723.66;5029511;28;20025;-80
2023/12/05 02:56:21;;;;;;;58.13;49.08;;;;;;;2.23;100.00;99717.53;5040998;28;20021;-79
2023/12/05 02:58:46;;;;;;;58.58;50.42;;;;;;;2.25;100.00;99723.47;5048894;28;20104;-80
2023/12/05 03:01:12;;;;;;;57.53;49.53;;;;;;;2.26;100.00;99719.97;5065055;28;20048;-80
2023/12/05 03:03:37;;;;;;;56.25;49.42;;;;;;;2.26;100.00;99719.13;5055224;28;20024;-80
2023/12/05 03:06:02;;;;;;;59.95;50.13;;;;;;;2.27;100.00;99715.59;5044638;28;20114;-79
2023/12/05 03:08:28;;;;;;;57.53;48.95;;;;;;;2.25;100.00;99713.09;5033009;28;20071;-80
2023/12/05 03:10:53;;;;;;;55.95;49.58;;;;;;;2.27;100.00;99711.25;5046314;28;20044;-80
2023/12/05 03:13:19;;;;;;;58.13;49.80;;;;;;;2.27;100.00;99706.06;5046328;28;20021;-80
2023/12/05 03:15:44;;;;;;;57.75;49.53;;;;;;;2.28;100.00;99702.53;5045129;28;20033;-80
2023/12/05 03:18:09;;;;;;;56.92;50.22;;;;;;;2.28;100.00;99705.13;5047606;28;20045;-79
2023/12/05 03:20:34;;;;;;;60.60;50.42;;;;;;;2.30;100.00;99710.25;5042903;28;20197;-79
2023/12/05 03:23:00;;;;;;;57.35;49.08;;;;;;;2.29;100.00;99704.22;5034065;28;20024;-79
2023/12/05 03:25:25;;;;;;;58.13;50.40;;;;;;;2.30;100.00;99705.88;5039667;28;20083;-80
2023/12/05 03:27:50;;;;;;;59.20;49.97;;;;;;;2.30;100.00;99708.47;5038263;28;20056;-79
2023/12/05 03:30:16;;;;;;;60.78;51.38;;;;;;;2.31;100.00;99704.97;5028829;28;20029;-80
2023/12/05 03:32:41;;;;;;;60.97;51.95;;;;;;;2.31;100.00;99704.97;5038461;28;20023;-79
2023/12/05 03:35:07;;;;;;;62.17;51.08;;;;;;;2.32;100.00;99714.41;5040712;28;20108;-80
2023/12/05 03:37:32;;;;;;;59.00;50.72;;;;;;;2.32;100.00;99717.00;5050772;28;20066;-80
2023/12/05 03:39:58;;;;;;;64.10;52.85;;;;;;;2.32;100.00;99717.00;5060558;28;20020;-79
2023/12/05 03:42:23;;;;;;;60.85;51.58;;;;;;;2.34;100.00;99714.31;5054064;28;20393;-79
2023/12/05 03:44:48;;;;;;;63.67;52.63;;;;;;;2.34;100.00;99716.91;5045084;28;20075;-79
2023/12/05 03:47:14;;;;;;;62.95;53.00;;;;;;;2.34;100.00;99720.34;5050459;28;20041;-79
2023/12/05 03:49:39;;;;;;;63.13;52.95;;;;;;;2.37;100.00;99717.56;5051814;28;20025;-79
2023/12/05 03:52:05;;;;;;;63.38;53.53;;;;;;;2.37;100.00;99722.75;5053166;28;20029;-79
2023/12/05 03:54:31;;;;;;;66.10;54.72;;;;;;;2.37;100.00;99727.94;5052769;28;20469;-79
2023/12/05 03:56:56;;;;;;;64.65;53.35;;;;;;;2.37;100.00;99721.94;5050891;28;20032;-79
2023/12/05 03:59:22;;;;;;;65.57;53.95;;;;;;;2.37;100.00;99733.16;5050785;28;20462;-79
2023/12/05 04:01:47;;;;;;;63.58;54.05;;;;;;;2.40;100.00;99732.13;5038979;28;20507;-79
2023/12/05 04:04:13;;;;;;;65.53;55.30;;;;;;;2.39;100.00;99728.69;5030729;28;20083;-79
2023/12/05 04:06:38;;;;;;;69.32;54.17;;;;;;;2.40;100.00;99740.78;5049178;28;20021;-79
2023/12/05 04:09:06;;;;;;;64.75;55.13;;;;;;;2.41;100.00;99739.84;5051412;28;20041;-79
2023/12/05 04:11:33;;;;;;;65.15;54.17;;;;;;;2.42;100.00;99741.53;5046967;28;20025;-79
2023/12/05 04:14:00;;;;;;;64.50;53.67;;;;;;;2.43;100.00;99740.59;5048608;28;20035;-80
2023/12/05 04:16:25;;;;;;;62.90;53.28;;;;;;;2.44;100.00;99750.06;5051724;28;20074;-79
2023/12/05 04:18:51;;;;;;;64.30;53.65;;;;;;;2.45;100.00;99743.94;5040775;28;20022;-79
2023/12/05 04:21:20;;;;;;;63.70;53.75;;;;;;;2.45;100.00;99749.13;5031645;28;20547;-79
2023/12/05 04:23:46;;;;;;;65.82;54.75;;;;;;;2.46;100.00;99750.81;5047008;28;20444;-79
2023/12/05 04:26:20;;;;;;;64.72;53.88;;;;;;;2.47;100.00;99757.66;5030923;28;20071;-79
2023/12/05 04:28:45;;;;;;;66.30;54.63;;;;;;;2.46;100.00;99748.22;5049255;28;20029;-80
2023/12/05 04:31:14;;;;;;;65.13;54.42;;;;;;;2.47;100.00;99752.47;5048219;28;20039;-80
2023/12/05 04:33:39;;;;;;;66.95;54.75;;;;;;;2.48;100.00;99750.72;5049885;28;20032;-79
2023/12/05 04:36:05;;;;;;;66.68;54.65;;;;;;;2.49;100.00;99757.56;5047780;28;20447;-80
2023/12/05 04:38:31;;;;;;;68.00;55.65;;;;;;;2.48;100.00;99751.56;5056256;28;20032;-80
2023/12/05 04:40:56;;;;;;;66.70;55.70;;;;;;;2.51;100.00;99761.75;5066098;28;20023;-80
2023/12/05 04:43:22;;;;;;;67.57;55.85;;;;;;;2.50;100.00;99759.25;5069547;28;20052;-80
2023/12/05 04:45:47;;;;;;;68.72;56.55;;;;;;;2.53;100.00;99763.41;5070167;28;20028;-80
2023/12/05 04:48:12;;;;;;;68.25;56.50;;;;;;;2.54;100.00;99767.69;5052187;28;20131;-79
2023/12/05 04:50:38;;;;;;;68.72;56.15;;;;;;;2.54;100.00;99772.88;5047735;28;20080;-79
2023/12/05 04:53:03;;;;;;;68.72;56.92;;;;;;;2.55;100.00;99769.38;5049642;28;20638;-80
2023/12/05 04:55:28;;;;;;;71.80;58.03;;;;;;;2.54;100.00;99768.53;5049334;28;20029;-79
2023/12/05 04:57:54;;;;;;;69.05;56.58;;;;;;;2.56;100.00;99776.22;5044800;28;20114;-80
2023/12/05 05:00:19;;;;;;;71.88;56.63;;;;;;;2.57;100.00;99772.69;5049356;28;20067;-80
2023/12/05 05:02:44;;;;;;;69.00;57.63;;;;;;;2.58;100.00;99774.38;5069687;28;20083;-80
2023/12/05 05:05:11;;;;;;;69.05;56.38;;;;;;;2.58;100.00;99788.19;5052587;28;20048;-80
2023/12/05 05:07:37;;;;;;;70.78;56.60;;;;;;;2.58;100.00;99787.34;5048484;28;20056;-79
2023/12/05 05:10:02;;;;;;;69.10;56.47;;;;;;;2.59;100.00;99778.63;5047692;28;20077;-80
2023/12/05 05:12:27;;;;;;;72.15;57.67;;;;;;;2.59;100.00;99778.63;5050050;28;20115;-80
2023/12/05 05:14:53;;;;;;;74.03;58.17;;;;;;;2.58;100.00;99784.75;5041106;28;20056;-80
2023/12/05 05:17:18;;;;;;;71.00;57.25;;;;;;;2.59;100.00;99782.06;5046679;28;20435;-79
2023/12/05 05:19:44;;;;;;;69.78;57.28;;;;;;;2.61;100.00;99787.16;5051503;28;20032;-79
2023/12/05 05:22:09;;;;;;;70.70;57.55;;;;;;;2.62;100.00;99788.84;5050467;28;20020;-79
2023/12/05 05:24:34;;;;;;;72.35;57.55;;;;;;;2.62;100.00;99794.03;5051076;28;20500;-79
2023/12/05 05:27:00;;;;;;;75.05;58.47;;;;;;;2.63;100.00;99796.53;5050115;28;20489;-79
2023/12/05 05:29:25;;;;;;;73.95;56.42;;;;;;;2.63;100.00;99785.31;5050312;28;20029;-79
2023/12/05 05:31:50;;;;;;;75.45;56.95;;;;;;;2.63;100.00;99793.13;5039767;28;20030;-79
2023/12/05 05:34:16;;;;;;;74.13;57.40;;;;;;;2.65;100.00;99793.84;5047702;28;20025;-79
2023/12/05 05:36:41;;;;;;;70.47;56.45;;;;;;;2.65;100.00;99794.69;5039680;28;20021;-80
2023/12/05 05:39:07;;;;;;;73.28;56.03;;;;;;;2.65;100.00;99791.25;5049513;28;20031;-79
2023/12/05 05:41:32;;;;;;;74.70;57.28;;;;;;;2.67;100.00;99792.00;5069036;28;20104;-79
2023/12/05 05:43:58;;;;;;;73.65;57.03;;;;;;;2.66;100.00;99798.13;5069720;28;20078;-79
2023/12/05 05:46:23;;;;;;;74.00;56.20;;;;;;;2.67;100.00;99797.19;5064652;28;20033;-79
2023/12/05 05:48:48;;;;;;;79.00;57.30;;;;;;;2.66;100.00;99798.97;5043373;28;20025;-79
2023/12/05 05:51:14;;;;;;;73.72;56.30;;;;;;;2.68;100.00;99798.88;5039599;28;20485;-79
2023/12/05 05:53:39;;;;;;;73.32;56.20;;;;;;;2.70;100.00;99791.81;5047826;28;20072;-79
2023/12/05 05:56:05;;;;;;;74.18;56.60;;;;;;;2.70;100.00;99797.03;5047810;28;20048;-79
2023/12/05 05:58:30;;;;;;;77.97;57.80;;;;;;;2.72;100.00;99802.97;5041504;28;20033;-79
2023/12/05 06:00:56;;;;;;;71.40;54.30;;;;;;;2.71;100.00;99794.31;5048250;28;20028;-79
2023/12/05 06:03:22;;;;;;;77.60;56.38;;;;;;;2.73;100.00;99802.03;5046937;28;20099;-79
2023/12/05 06:05:48;;;;;;;73.90;54.78;;;;;;;2.73;100.00;99796.84;5044835;28;20036;-79
2023/12/05 06:08:13;;;;;;;74.95;55.20;;;;;;;2.75;100.00;99805.38;5039929;28;20037;-79
2023/12/05 06:10:40;;;;;;;73.25;54.40;;;;;;;2.75;100.00;99805.38;5044033;28;20027;-79
2023/12/05 06:13:05;;;;;;;74.50;54.22;;;;;;;2.75;100.00;99802.78;5045906;28;20078;-79
2023/12/05 06:15:30;;;;;;;74.63;54.83;;;;;;;2.74;100.00;99803.69;5047826;28;20098;-79
2023/12/05 06:17:57;;;;;;;71.78;54.20;;;;;;;2.75;100.00;99806.22;5044993;28;20548;-79
2023/12/05 06:20:22;;;;;;;71.90;52.72;;;;;;;2.76;100.00;99804.44;5048420;28;20120;-79
2023/12/05 06:22:48;;;;;;;72.68;53.75;;;;;;;2.77;100.00;99813.91;5047671;28;20154;-79
2023/12/05 06:25:13;;;;;;;75.60;54.65;;;;;;;2.77;100.00;99813.91;5041644;28;20495;-79
2023/12/05 06:27:39;;;;;;;70.93;52.58;;;;;;;2.78;100.00;99821.59;5049735;28;20057;-79
2023/12/05 06:30:05;;;;;;;70.65;53.03;;;;;;;2.79;100.00;99827.63;5048635;28;20149;-79
2023/12/05 06:32:30;;;;;;;74.47;53.95;;;;;;;2.78;100.00;99831.16;5046827;28;20037;-79
2023/12/05 06:34:56;;;;;;;72.50;52.90;;;;;;;2.79;100.00;99827.63;5047384;28;20029;-80
2023/12/05 06:37:21;;;;;;;72.70;52.90;;;;;;;2.81;100.00;99838.81;5048017;28;20043;-79
2023/12/05 06:39:46;;;;;;;75.30;53.42;;;;;;;2.82;100.00;99833.53;5055958;28;20327;-79
2023/12/05 06:42:12;;;;;;;74.80;53.67;;;;;;;2.84;100.00;99846.41;5045094;28;20378;-79
2023/12/05 06:44:37;;;;;;;73.82;54.25;;;;;;;2.85;100.00;99850.69;5043260;28;20071;-79
2023/12/05 06:47:02;;;;;;;78.47;54.70;;;;;;;2.86;100.00;99844.56;5047294;28;20115;-79
2023/12/05 06:49:28;;;;;;;75.03;54.25;;;;;;;2.86;100.00;99849.75;5046841;28;20130;-79
2023/12/05 06:51:57;;;;;;;77.88;54.13;;;;;;;2.87;100.00;99845.41;5033557;28;20033;-79
2023/12/05 06:54:22;;;;;;;76.93;54.22;;;;;;;2.86;100.00;99852.34;5047202;28;20435;-79
2023/12/05 06:56:48;;;;;;;79.47;54.60;;;;;;;2.87;100.00;99855.78;5047870;28;20082;-79
2023/12/05 06:59:14;;;;;;;77.55;55.13;;;;;;;2.87;100.00;99861.81;5043382;28;20474;-79
2023/12/05 07:01:39;;;;;;;81.55;55.33;;;;;;;2.87;100.00;99861.81;5050879;28;20118;-79
2023/12/05 07:04:05;;;;;;;88.57;56.60;;;;;;;2.88;100.00;99858.31;5029425;28;20036;-79
2023/12/05 07:06:31;;;;;;;79.88;54.92;;;;;;;2.89;100.00;99867.75;5042948;28;20473;-79
2023/12/05 07:08:56;;;;;;;80.35;54.83;;;;;;;2.91;100.00;99868.50;5047469;28;20265;-79
2023/12/05 07:11:27;;;;;;;78.05;55.35;;;;;;;2.89;100.00;99870.38;5045322;28;20021;-79
2023/12/05 07:13:53;;;;;;;83.25;54.58;;;;;;;2.89;100.00;99875.56;5046760;28;20108;-79
2023/12/05 07:16:19;;;;;;;76.15;53.13;;;;;;;2.89;100.00;99875.56;5041533;28;20035;-79
2023/12/05 07:18:44;;;;;;;76.82;52.90;;;;;;;2.88;100.00;99878.25;5045549;28;20036;-80
2023/12/05 07:21:10;;;;;;;76.55;52.65;;;;;;;2.89;100.00;99880.75;5046631;28;20021;-80
2023/12/05 07:23:36;;;;;;;76.90;52.65;;;;;;;2.86;100.00;99883.53;5045144;28;20032;-79
2023/12/05 07:26:02;;;;;;;76.88;51.80;;;;;;;2.86;100.00;99886.13;5048298;28;20083;-79
2023/12/05 07:28:28;;;;;;;74.93;52.03;;;;;;;2.83;100.00;99896.69;5048188;28;20035;-79
2023/12/05 07:30:53;;;;;;;79.28;52.25;;;;;;;2.80;100.00;99891.66;5047059;28;20021;-79
2023/12/05 07:33:19;;;;;;;77.07;52.88;;;;;;;2.80;100.00;99902.03;5039995;28;20028;-79
2023/12/05 07:35:44;;;;;;;77.63;52.08;;;;;;;2.79;100.00;99902.97;5043224;28;20079;-80
2023/12/05 07:38:10;;;;;;;78.70;52.70;;;;;;;2.78;100.00;99906.47;5043764;28;20021;-81
2023/12/05 07:40:35;;;;;;;78.97;52.42;;;;;;;2.74;100.00;99908.41;5044216;28;20366;-80
2023/12/05 07:43:01;;;;;;;80.25;52.35;;;;;;;2.74;100.00;99913.63;5040815;28;20025;-79
2023/12/05 07:45:26;;;;;;;77.55;51.42;;;;;;;2.73;100.00;99918.91;5044884;28;20477;-80
2023/12/05 07:47:51;;;;;;;80.40;52.95;;;;;;;2.72;100.00;99927.63;5046890;28;20113;-79
2023/12/05 07:50:17;;;;;;;78.88;52.05;;;;;;;2.69;100.00;99930.38;5046211;28;20068;-79
2023/12/05 07:52:42;;;;;;;77.50;51.75;;;;;;;2.69;100.00;99930.38;5046492;28;20025;-80
2023/12/05 07:55:08;;;;;;;78.25;52.25;;;;;;;2.69;100.00;99945.97;5046444;28;20417;-79
2023/12/05 07:57:33;;;;;;;77.22;52.60;;;;;;;2.66;100.00;99943.53;5047352;28;20416;-79
2023/12/05 07:59:59;;;;;;;79.35;53.83;;;;;;;2.65;100.00;99949.66;5053614;28;20024;-79
2023/12/05 08:02:25;;;;;;;75.72;52.08;;;;;;;2.63;100.00;99954.09;5044630;28;20396;-79
2023/12/05 08:04:50;;;;;;;78.18;51.88;;;;;;;2.62;100.00;99955.03;5044346;28;20024;-80
2023/12/05 08:07:17;;;;;;;83.07;54.42;;;;;;;2.59;100.00;99958.63;5039250;28;20030;-79
2023/12/05 08:09:42;;;;;;;84.75;54.13;;;;;;;2.57;100.00;99962.25;5042673;28;20467;-79
2023/12/05 08:12:08;;;;;;;79.68;52.45;;;;;;;2.58;100.00;99967.34;5026677;28;20360;-79
2023/12/05 08:14:33;;;;;;;78.45;53.55;;;;;;;2.59;100.00;99975.97;5028022;28;20029;-80
2023/12/05 08:16:58;;;;;;;81.43;53.10;;;;;;;2.53;100.00;99971.13;5049599;28;20033;-80
2023/12/05 08:19:25;;;;;;;83.80;54.65;;;;;;;2.52;100.00;99975.47;5050129;28;20024;-80
2023/12/05 08:21:50;;;;;;;84.03;53.65;;;;;;;2.46;100.00;99971.47;5050728;28;20036;-80
2023/12/05 08:24:16;;;;;;;79.13;52.22;;;;;;;2.48;100.00;99982.59;5048223;28;20029;-79
2023/12/05 08:26:41;;;;;;;81.38;53.85;;;;;;;2.46;100.00;99981.84;5051806;28;20079;-80
2023/12/05 08:29:06;;;;;;;80.82;52.72;;;;;;;2.44;100.00;99988.88;5050536;28;20112;-79
2023/12/05 08:31:32;;;;;;;83.68;53.38;;;;;;;2.45;100.00;99994.91;5049986;28;20028;-79
2023/12/05 08:33:58;;;;;;;92.53;56.00;;;;;;;2.42;100.00;99995.91;5046387;28;20025;-79
2023/12/05 08:36:24;;;;;;;83.82;55.47;;;;;;;2.44;100.00;100001.03;5048718;28;20028;-79
2023/12/05 08:38:49;;;;;;;85.90;53.13;;;;;;;2.43;100.00;100004.53;5048652;28;20017;-80
2023/12/05 08:41:19;;;;;;;87.13;54.88;;;;;;;2.43;100.00;100017.53;5048197;28;20051;-79
2023/12/05 08:43:46;;;;;;;87.70;56.05;;;;;;;2.41;100.00;100011.56;5045710;28;20041;-80
2023/12/05 08:46:11;;;;;;;86.13;57.42;;;;;;;2.43;100.00;100002.78;5031385;28;20033;-79
2023/12/05 08:48:37;;;;;;;89.07;56.85;;;;;;;2.42;100.00;100006.31;5046822;28;20025;-79
2023/12/05 08:51:02;;;;;;;88.22;56.95;;;;;;;2.37;100.00;100010.88;5047237;28;20048;-79
2023/12/05 08:53:27;;;;;;;92.85;56.50;;;;;;;2.36;100.00;100014.38;5044426;28;20060;-79
2023/12/05 08:55:53;;;;;;;88.55;56.30;;;;;;;2.34;100.00;100013.63;5049225;28;20473;-79
2023/12/05 08:58:18;;;;;;;81.47;54.17;;;;;;;2.34;100.00;100018.81;5050707;28;20025;-79
2023/12/05 09:00:44;;;;;;;89.60;55.78;;;;;;;2.33;100.00;100014.56;5065561;28;20449;-79
2023/12/05 09:03:09;;;;;;;95.95;57.03;;;;;;;2.34;100.00;100013.63;5045131;28;20025;-79
2023/12/05 09:05:35;;;;;;;85.88;55.60;;;;;;;2.34;100.00;100024.00;5031426;28;20025;-79
2023/12/05 09:08:01;;;;;;;86.03;55.80;;;;;;;2.33;100.00;100024.94;5030494;28;20806;-79
2023/12/05 09:10:27;;;;;;;85.50;55.97;;;;;;;2.31;100.00;100029.38;5040858;28;20078;-79
2023/12/05 09:12:52;;;;;;;86.05;57.15;;;;;;;2.33;100.00;100031.88;5049104;28;20039;-79
2023/12/05 09:15:18;;;;;;;93.03;55.08;;;;;;;2.32;100.00;100038.00;5050282;28;20021;-79
2023/12/05 09:17:44;;;;;;;83.55;54.35;;;;;;;2.31;100.00;100038.91;5048010;28;20064;-79
2023/12/05 09:20:09;;;;;;;94.47;57.08;;;;;;;2.28;100.00;100037.31;5050079;28;20044;-79
2023/12/05 09:22:35;;;;;;;92.68;56.25;;;;;;;2.30;100.00;100043.28;5043953;28;20047;-79
2023/12/05 09:25:00;;;;;;;94.18;56.28;;;;;;;2.30;100.00;100043.28;5030631;28;20033;-79
2023/12/05 09:27:26;;;;;;;95.10;55.53;;;;;;;2.31;100.00;100050.13;5034765;28;20033;-79
2023/12/05 09:29:51;;;;;;;106.97;57.20;;;;;;;2.33;100.00;100052.66;5037590;28;20508;-79
2023/12/05 09:32:17;;;;;;;92.78;55.08;;;;;;;2.30;100.00;100064.03;5040501;28;20033;-79
2023/12/05 09:34:44;;;;;;;85.70;53.10;;;;;;;2.34;100.00;100062.94;5044521;28;20013;-79
2023/12/05 09:37:09;;;;;;;89.97;54.85;;;;;;;2.34;100.00;100075.09;5048954;28;20024;-79
2023/12/05 09:39:35;;;;;;;88.47;53.47;;;;;;;2.36;100.00;100074.09;5051641;28;20359;-79
2023/12/05 09:42:05;;;;;;;86.90;53.78;;;;;;;2.37;100.00;100090.50;5047787;28;20031;-79
2023/12/05 09:44:35;;;;;;;78.88;52.22;;;;;;;2.34;100.00;100088.91;5044786;28;20036;-79
2023/12/05 09:47:04;;;;;;;85.63;52.63;;;;;;;2.36;100.00;100089.66;5054180;28;20549;-79
2023/12/05 09:49:30;;;;;;;86.97;53.38;;;;;;;2.37;100.00;100085.31;5055323;28;20488;-79
2023/12/05 09:51:57;;;;;;;82.97;51.40;;;;;;;2.36;100.00;100087.06;5057013;28;20029;-79
2023/12/05 09:54:25;;;;;;;82.25;52.38;;;;;;;2.38;100.00;100090.41;5054229;28;20029;-79
2023/12/05 09:56:53;;;;;;;87.30;52.60;;;;;;;2.38;100.00;100087.81;5062196;28;20025;-79
2023/12/05 09:59:20;;;;;;;88.05;52.28;;;;;;;2.39;100.00;100089.50;5064224;28;20123;-79
2023/12/05 10:01:46;;;;;;;84.20;50.70;;;;;;;2.43;100.00;100092.81;5046702;28;20032;-79
2023/12/05 10:04:16;;;;;;;90.85;52.97;;;;;;;2.40;100.00;100101.59;5059593;28;20021;-79
2023/12/05 10:06:43;;;;;;;83.03;52.33;;;;;;;2.42;100.00;100104.09;5059611;28;20388;-79
2023/12/05 10:09:09;;;;;;;87.60;51.72;;;;;;;2.40;100.00;100111.97;5057373;28;20472;-79
2023/12/05 10:11:36;;;;;;;85.80;53.55;;;;;;;2.40;100.00;100111.97;5062602;28;20077;-79
2023/12/05 10:14:03;;;;;;;85.35;53.20;;;;;;;2.45;100.00;100120.34;5060687;28;20025;-80
2023/12/05 10:16:30;;;;;;;90.82;53.97;;;;;;;2.46;100.00;100122.03;5055484;28;20107;-79
2023/12/05 10:18:56;;;;;;;98.35;57.55;;;;;;;2.48;100.00;100125.38;5047412;28;20028;-79
2023/12/05 10:21:22;;;;;;;86.07;54.58;;;;;;;2.53;100.00;100129.50;5049503;28;20020;-79
2023/12/05 10:23:49;;;;;;;89.30;54.72;;;;;;;2.54;100.00;100120.78;5053718;28;20391;-79
2023/12/05 10:26:15;;;;;;;95.28;55.05;;;;;;;2.54;100.00;100131.19;5055266;28;20107;-79
2023/12/05 10:28:51;;;;;;;93.47;55.92;;;;;;;2.56;100.00;100134.53;5056221;28;20025;-80
2023/12/05 10:31:18;;;;;;;84.03;53.30;;;;;;;2.56;100.00;100129.34;5040505;28;20124;-79
2023/12/05 10:33:43;;;;;;;94.90;53.35;;;;;;;2.57;100.00;100133.59;5042867;28;20063;-80
2023/12/05 10:36:13;;;;;;;89.05;52.40;;;;;;;2.59;100.00;100137.81;5050542;28;20025;-79
2023/12/05 10:38:41;;;;;;;88.90;54.03;;;;;;;2.57;100.00;100129.25;5058342;28;20111;-79
2023/12/05 10:41:07;;;;;;;94.30;53.90;;;;;;;2.65;100.00;100136.63;5066855;28;20088;-79
2023/12/05 10:43:32;;;;;;;78.38;50.45;;;;;;;2.63;100.00;100148.88;5060081;28;20052;-79
2023/12/05 10:45:59;;;;;;;66.97;46.47;;;;;;;2.64;100.00;100150.53;5046781;28;20403;-79
2023/12/05 10:48:25;;;;;;;72.82;45.72;;;;;;;2.60;100.00;100149.03;5036566;28;20021;-79
2023/12/05 10:50:51;;;;;;;63.65;43.75;;;;;;;2.61;100.00;100150.69;5042262;28;20028;-79
2023/12/05 10:53:17;;;;;;;63.97;43.90;;;;;;;2.65;100.00;100141.81;5041315;28;20013;-79
2023/12/05 10:55:43;;;;;;;55.60;39.30;;;;;;;2.67;100.00;100150.38;5049035;28;20109;-78
2023/12/05 10:58:09;;;;;;;49.83;36.33;;;;;;;2.62;100.00;100153.22;5056543;28;20378;-79
2023/12/05 11:00:36;;;;;;;45.17;34.55;;;;;;;2.66;100.00;100159.09;5065614;28;20063;-79
2023/12/05 11:03:03;;;;;;;49.53;35.97;;;;;;;2.73;100.00;100155.25;5046862;28;20029;-79
2023/12/05 11:05:30;;;;;;;46.10;35.20;;;;;;;2.77;100.00;100156.75;5049022;28;20040;-78
2023/12/05 11:07:57;;;;;;;46.72;33.53;;;;;;;2.75;100.00;100158.59;5053144;28;20029;-78
2023/12/05 11:10:23;;;;;;;41.28;32.30;;;;;;;2.80;100.00;100159.19;5047001;28;20053;-79